createdAt,value
2019-01-29T00:01:05.620Z,10.63
2019-01-29T00:03:35.110Z,11.03
2019-01-29T00:06:04.921Z,11.00
2019-01-29T00:08:34.398Z,11.50
2019-01-29T00:11:03.967Z,11.30
2019-01-29T00:13:33.447Z,11.30
2019-01-29T00:16:02.933Z,11.08
2019-01-29T00:18:32.407Z,11.80
2019-01-29T00:21:01.892Z,10.70
2019-01-29T00:23:31.359Z,11.50
2019-01-29T00:26:00.870Z,10.47
2019-01-29T00:28:30.349Z,11.75
2019-01-29T00:30:59.844Z,11.57
2019-01-29T00:33:29.319Z,11.68
2019-01-29T00:35:58.816Z,11.00
2019-01-29T00:38:28.309Z,10.32
2019-01-29T00:40:57.804Z,10.85
2019-01-29T00:43:27.297Z,10.75
2019-01-29T00:45:56.777Z,10.70
2019-01-29T00:48:26.260Z,11.53
2019-01-29T00:50:55.804Z,10.08
2019-01-29T00:53:25.366Z,10.70
2019-01-29T00:55:54.840Z,9.83
2019-01-29T00:58:24.324Z,10.23
2019-01-29T01:00:53.875Z,10.55
2019-01-29T01:03:23.367Z,9.93
2019-01-29T01:05:52.843Z,10.30
2019-01-29T01:08:22.353Z,10.60
2019-01-29T01:10:51.843Z,11.03
2019-01-29T01:13:21.333Z,10.60
2019-01-29T01:15:50.813Z,9.60
2019-01-29T01:18:20.309Z,10.20
2019-01-29T01:20:49.791Z,10.30
2019-01-29T01:23:19.273Z,10.53
2019-01-29T01:25:48.761Z,10.88
2019-01-29T01:28:18.249Z,11.22
2019-01-29T01:30:47.727Z,11.38
2019-01-29T01:33:17.233Z,10.98
2019-01-29T01:35:46.724Z,11.60
2019-01-29T01:38:16.220Z,11.30
2019-01-29T01:40:45.714Z,11.85
2019-01-29T01:43:16.172Z,12.00
2019-01-29T01:45:45.654Z,10.70
2019-01-29T01:48:15.139Z,10.98
2019-01-29T01:50:44.611Z,11.20
2019-01-29T01:53:14.090Z,10.75
2019-01-29T01:55:43.664Z,11.12
2019-01-29T01:58:13.156Z,11.80
2019-01-29T02:00:42.649Z,12.00
2019-01-29T02:03:12.148Z,11.03
2019-01-29T02:05:41.628Z,11.38
2019-01-29T02:08:11.216Z,11.57
2019-01-29T02:10:40.720Z,11.48
2019-01-29T02:13:10.208Z,10.72
2019-01-29T02:15:39.699Z,11.20
2019-01-29T02:18:09.181Z,11.00
2019-01-29T02:20:38.659Z,10.68
2019-01-29T02:23:09.209Z,10.75
2019-01-29T02:25:38.710Z,10.18
2019-01-29T02:28:08.195Z,9.78
2019-01-29T02:30:37.683Z,9.50
2019-01-29T02:33:07.156Z,10.20
2019-01-29T02:35:36.633Z,9.78
2019-01-29T02:38:06.105Z,8.75
2019-01-29T02:40:35.591Z,10.50
2019-01-29T02:43:05.134Z,9.65
2019-01-29T02:45:34.616Z,9.38
2019-01-29T02:48:04.160Z,9.05
2019-01-29T02:50:33.662Z,9.00
2019-01-29T02:53:03.127Z,9.88
2019-01-29T02:55:32.616Z,9.93
2019-01-29T02:58:02.090Z,9.30
2019-01-29T03:00:31.577Z,9.37
2019-01-29T03:03:01.058Z,8.67
2019-01-29T03:05:30.607Z,10.07
2019-01-29T03:08:00.090Z,9.30
2019-01-29T03:10:29.586Z,9.10
2019-01-29T03:12:59.065Z,9.60
2019-01-29T03:15:31.085Z,9.20
2019-01-29T03:18:00.635Z,8.73
2019-01-29T03:20:30.195Z,8.50
2019-01-29T03:22:59.745Z,8.60
2019-01-29T03:25:29.233Z,8.68
2019-01-29T03:27:58.762Z,8.35
2019-01-29T03:30:28.349Z,8.00
2019-01-29T03:32:57.819Z,7.70
2019-01-29T03:35:27.362Z,7.92
2019-01-29T03:37:56.827Z,7.45
2019-01-29T03:40:27.775Z,7.05
2019-01-29T03:42:57.255Z,7.60
2019-01-29T03:45:26.746Z,6.97
2019-01-29T03:47:56.205Z,7.10
2019-01-29T03:50:25.774Z,6.10
2019-01-29T03:52:55.244Z,6.03
2019-01-29T03:55:24.737Z,5.80
2019-01-29T03:57:54.226Z,6.40
2019-01-29T04:00:25.687Z,6.05
2019-01-29T04:02:55.342Z,5.55
2019-01-29T04:05:24.896Z,5.53
2019-01-29T04:07:55.405Z,5.65
2019-01-29T04:10:24.972Z,6.20
2019-01-29T04:12:54.443Z,5.40
2019-01-29T04:15:24.271Z,5.87
2019-01-29T04:17:56.729Z,5.30
2019-01-29T04:20:27.878Z,5.30
2019-01-29T04:22:57.615Z,4.67
2019-01-29T04:25:27.208Z,5.05
2019-01-29T04:27:56.699Z,4.87
2019-01-29T04:30:26.168Z,5.28
2019-01-29T04:32:55.645Z,4.80
2019-01-29T04:35:25.214Z,5.05
2019-01-29T04:37:54.742Z,4.93
2019-01-29T04:40:24.284Z,5.05
2019-01-29T04:42:53.858Z,6.25
2019-01-29T04:45:23.345Z,4.87
2019-01-29T04:47:52.863Z,5.65
2019-01-29T04:50:23.266Z,5.70
2019-01-29T04:52:52.858Z,6.90
2019-01-29T04:55:22.404Z,6.72
2019-01-29T04:57:51.885Z,8.90
2019-01-29T05:00:23.482Z,8.10
2019-01-29T05:02:53.050Z,8.63
2019-01-29T05:05:24.972Z,7.90
2019-01-29T05:07:54.465Z,9.55
2019-01-29T05:10:24.025Z,8.15
2019-01-29T05:12:53.515Z,8.70
2019-01-29T05:15:23.117Z,8.10
2019-01-29T05:17:52.658Z,8.30
2019-01-29T05:20:22.768Z,9.70
2019-01-29T05:22:52.340Z,8.83
2019-01-29T05:25:21.907Z,9.60
2019-01-29T05:27:51.465Z,9.00
2019-01-29T05:30:23.167Z,9.50
2019-01-29T05:32:52.726Z,9.75
2019-01-29T05:35:22.295Z,9.23
2019-01-29T05:37:51.936Z,9.48
2019-01-29T05:40:22.793Z,9.40
2019-01-29T05:42:52.445Z,8.85
2019-01-29T05:45:23.028Z,9.08
2019-01-29T05:47:53.658Z,9.20
2019-01-29T05:50:23.200Z,9.10
2019-01-29T05:52:52.783Z,8.60
2019-01-29T05:55:22.407Z,9.00
2019-01-29T05:57:51.902Z,9.10
2019-01-29T06:00:25.096Z,8.70
2019-01-29T06:02:54.598Z,9.70
2019-01-29T06:05:24.522Z,9.83
2019-01-29T06:07:54.015Z,9.23
2019-01-29T06:10:23.526Z,10.65
2019-01-29T06:12:53.175Z,10.50
2019-01-29T06:15:22.733Z,11.23
2019-01-29T06:17:52.301Z,11.55
2019-01-29T06:20:23.160Z,11.30
2019-01-29T06:22:52.701Z,11.40
2019-01-29T06:25:22.205Z,12.30
2019-01-29T06:27:51.701Z,11.30
2019-01-29T06:30:21.623Z,12.15
2019-01-29T06:32:51.248Z,11.90
2019-01-29T06:35:20.806Z,10.43
2019-01-29T06:37:50.524Z,10.45
2019-01-29T06:40:22.077Z,9.47
2019-01-29T06:42:51.598Z,9.60
2019-01-29T06:45:21.468Z,9.60
2019-01-29T06:47:51.424Z,9.68
2019-01-29T06:50:22.834Z,9.50
2019-01-29T06:52:52.415Z,9.60
2019-01-29T06:55:22.345Z,9.10
2019-01-29T06:57:55.643Z,9.23
2019-01-29T07:00:27.933Z,9.83
2019-01-29T07:02:58.044Z,10.45
2019-01-29T07:05:27.610Z,8.45
2019-01-29T07:07:57.186Z,8.28
2019-01-29T07:10:27.279Z,8.70
2019-01-29T07:12:56.861Z,8.50
2019-01-29T07:15:45.005Z,8.03
2019-01-29T07:18:33.691Z,8.03
2019-01-29T07:21:05.920Z,7.72
2019-01-29T07:23:35.390Z,8.38
2019-01-29T07:26:05.248Z,10.20
2019-01-29T07:28:34.734Z,7.70
2019-01-29T07:31:04.691Z,6.70
2019-01-29T07:33:34.172Z,7.42
2019-01-29T07:36:03.668Z,7.40
2019-01-29T07:38:33.228Z,8.10
2019-01-29T07:41:02.718Z,7.42
2019-01-29T07:43:32.243Z,6.83
2019-01-29T07:46:01.712Z,6.97
2019-01-29T07:48:31.194Z,7.70
2019-01-29T07:51:00.670Z,7.35
2019-01-29T07:53:30.150Z,8.10
2019-01-29T07:55:59.623Z,8.98
2019-01-29T07:58:29.090Z,7.87
2019-01-29T08:00:58.566Z,8.60
2019-01-29T08:03:28.063Z,8.18
2019-01-29T08:05:57.540Z,9.30
2019-01-29T08:08:27.010Z,8.20
2019-01-29T08:10:56.489Z,8.73
2019-01-29T08:13:26.044Z,8.23
2019-01-29T08:15:55.527Z,9.50
2019-01-29T08:18:25.007Z,9.65
2019-01-29T08:20:54.557Z,9.33
2019-01-29T08:23:24.049Z,9.30
2019-01-29T08:25:53.790Z,9.53
2019-01-29T08:28:23.255Z,9.78
2019-01-29T08:30:52.737Z,10.60
2019-01-29T08:33:22.217Z,11.48
2019-01-29T08:35:51.792Z,11.68
2019-01-29T08:38:21.270Z,11.93
2019-01-29T08:40:50.928Z,12.77
2019-01-29T08:43:20.402Z,11.83
2019-01-29T08:45:49.975Z,12.45
2019-01-29T08:48:19.457Z,12.03
2019-01-29T08:50:49.021Z,12.37
2019-01-29T08:53:18.490Z,14.18
2019-01-29T08:55:47.985Z,12.70
2019-01-29T08:58:17.474Z,12.40
2019-01-29T09:00:46.981Z,12.20
2019-01-29T09:03:16.473Z,13.40
2019-01-29T09:05:45.964Z,13.80
2019-01-29T09:08:15.452Z,14.37
2019-01-29T09:10:44.946Z,15.53
2019-01-29T09:13:14.437Z,14.65
2019-01-29T09:15:43.933Z,14.68
2019-01-29T09:18:13.417Z,16.35
2019-01-29T09:20:43.886Z,15.58
2019-01-29T09:23:13.367Z,16.15
2019-01-29T09:25:42.874Z,14.68
2019-01-29T09:28:12.382Z,13.83
2019-01-29T09:30:41.863Z,14.95
2019-01-29T09:33:11.595Z,14.80
2019-01-29T09:35:41.089Z,14.78
2019-01-29T09:38:10.566Z,14.18
2019-01-29T09:40:40.058Z,15.80
2019-01-29T09:43:09.548Z,14.98
2019-01-29T09:45:39.071Z,15.55
2019-01-29T09:48:08.562Z,15.90
2019-01-29T09:50:38.033Z,14.63
2019-01-29T09:53:07.526Z,16.57
2019-01-29T09:55:37.020Z,15.45
2019-01-29T09:58:06.501Z,15.93
2019-01-29T10:00:37.484Z,16.45
2019-01-29T10:03:07.313Z,16.45
2019-01-29T10:05:36.814Z,17.12
2019-01-29T10:08:07.142Z,15.63
2019-01-29T10:10:36.702Z,15.90
2019-01-29T10:13:06.271Z,15.55
2019-01-29T10:15:36.241Z,16.10
2019-01-29T10:18:05.884Z,15.05
2019-01-29T10:20:35.629Z,16.32
2019-01-29T10:23:05.505Z,14.98
2019-01-29T10:25:37.917Z,17.30
2019-01-29T10:28:06.252Z,16.25
2019-01-29T10:30:35.729Z,16.65
2019-01-29T10:33:05.304Z,16.02
2019-01-29T10:35:34.804Z,18.10
2019-01-29T10:38:04.373Z,15.90
2019-01-29T10:40:33.854Z,16.57
2019-01-29T10:43:03.346Z,17.20
2019-01-29T10:45:32.909Z,16.50
2019-01-29T10:48:02.403Z,18.07
2019-01-29T10:50:32.468Z,17.65
2019-01-29T10:53:02.099Z,17.60
2019-01-29T10:55:31.640Z,17.70
2019-01-29T10:58:01.310Z,16.43
2019-01-29T11:00:36.852Z,14.98
2019-01-29T11:03:07.399Z,15.30
2019-01-29T11:05:37.050Z,15.70
2019-01-29T11:08:07.626Z,15.80
2019-01-29T11:10:37.163Z,14.98
2019-01-29T11:13:07.407Z,14.93
2019-01-29T11:15:39.006Z,15.43
2019-01-29T11:18:11.193Z,15.90
2019-01-29T11:20:40.756Z,16.17
2019-01-29T11:23:10.400Z,16.00
2019-01-29T11:25:40.074Z,16.42
2019-01-29T11:28:09.647Z,12.95
2019-01-29T11:30:39.220Z,17.48
2019-01-29T11:33:08.809Z,16.75
2019-01-29T11:35:38.304Z,17.73
2019-01-29T11:38:08.007Z,17.50
2019-01-29T11:40:37.644Z,15.90
2019-01-29T11:43:07.487Z,14.90
2019-01-29T11:45:39.454Z,15.85
2019-01-29T11:48:09.057Z,15.70
2019-01-29T11:50:38.643Z,14.55
2019-01-29T11:53:08.193Z,14.83
2019-01-29T11:55:37.692Z,15.83
2019-01-29T11:58:07.464Z,16.32
2019-01-29T12:00:41.336Z,15.90
2019-01-29T12:03:10.904Z,16.95
2019-01-29T12:05:40.388Z,16.95
2019-01-29T12:08:10.091Z,16.75
2019-01-29T12:10:39.651Z,17.60
2019-01-29T12:13:09.226Z,18.50
2019-01-29T12:15:38.863Z,19.47
2019-01-29T12:18:08.525Z,22.05
2019-01-29T12:20:38.087Z,21.00
2019-01-29T12:23:07.657Z,22.48
2019-01-29T12:25:37.252Z,22.17
2019-01-29T12:28:06.851Z,24.65
2019-01-29T12:30:36.493Z,25.52
2019-01-29T12:33:07.814Z,26.70
2019-01-29T12:35:37.360Z,26.55
2019-01-29T12:38:06.944Z,25.37
2019-01-29T12:40:37.102Z,27.32
2019-01-29T12:43:06.788Z,26.20
2019-01-29T12:45:36.353Z,27.05
2019-01-29T12:48:05.925Z,26.93
2019-01-29T12:50:35.494Z,28.40
2019-01-29T12:53:16.983Z,27.63
2019-01-29T12:55:46.575Z,28.13
2019-01-29T12:58:16.095Z,28.27
2019-01-29T13:00:57.024Z,29.45
2019-01-29T13:03:26.518Z,29.40
2019-01-29T13:05:56.109Z,29.03
2019-01-29T13:08:25.684Z,30.67
2019-01-29T13:10:55.207Z,31.33
2019-01-29T13:13:24.769Z,29.90
2019-01-29T13:15:54.271Z,27.80
2019-01-29T13:18:23.776Z,25.17
2019-01-29T13:20:53.390Z,25.52
2019-01-29T13:23:22.910Z,27.70
2019-01-29T13:25:52.489Z,26.55
2019-01-29T13:28:22.065Z,25.75
2019-01-29T13:30:51.646Z,26.17
2019-01-29T13:33:22.178Z,25.72
2019-01-29T13:35:52.628Z,26.17
2019-01-29T13:38:22.111Z,25.23
2019-01-29T13:40:51.683Z,25.75
2019-01-29T13:43:21.157Z,26.05
2019-01-29T13:45:50.718Z,25.83
2019-01-29T13:48:20.280Z,26.77
2019-01-29T13:50:53.573Z,26.37
2019-01-29T13:53:23.115Z,27.03
2019-01-29T13:55:52.638Z,29.97
2019-01-29T13:58:22.309Z,27.05
2019-01-29T14:00:51.858Z,26.50
2019-01-29T14:03:21.529Z,26.80
2019-01-29T14:05:51.030Z,26.27
2019-01-29T14:08:20.557Z,26.17
2019-01-29T14:10:50.132Z,26.33
2019-01-29T14:13:19.630Z,23.50
2019-01-29T14:15:54.319Z,23.75
2019-01-29T14:18:25.858Z,24.00
2019-01-29T14:20:55.387Z,24.37
2019-01-29T14:23:25.005Z,21.97
2019-01-29T14:25:54.591Z,21.03
2019-01-29T14:28:24.184Z,21.17
2019-01-29T14:30:53.715Z,22.70
2019-01-29T14:33:23.351Z,22.60
2019-01-29T14:35:52.934Z,23.40
2019-01-29T14:39:06.117Z,21.90
2019-01-29T14:41:37.279Z,23.20
2019-01-29T14:44:10.037Z,23.03
2019-01-29T14:46:39.535Z,25.80
2019-01-29T14:49:09.059Z,25.00
2019-01-29T14:51:38.554Z,25.33
2019-01-29T14:54:08.344Z,23.87
2019-01-29T14:56:37.841Z,22.10
2019-01-29T14:59:08.429Z,22.07
2019-01-29T15:01:38.008Z,20.70
2019-01-29T15:04:07.541Z,21.03
2019-01-29T15:06:37.041Z,20.90
2019-01-29T15:09:12.133Z,21.05
2019-01-29T15:11:41.653Z,21.23
2019-01-29T15:14:11.199Z,20.85
2019-01-29T15:16:59.994Z,20.92
2019-01-29T15:19:30.863Z,20.30
2019-01-29T15:22:00.352Z,19.62
2019-01-29T15:24:29.873Z,19.87
2019-01-29T15:27:05.383Z,19.65
2019-01-29T15:29:30.552Z,20.50
2019-01-29T15:32:00.041Z,20.47
2019-01-29T15:34:29.518Z,20.85
2019-01-29T15:36:59.001Z,20.45
2019-01-29T15:39:28.476Z,20.12
2019-01-29T15:41:57.968Z,20.05
2019-01-29T15:44:27.443Z,20.17
2019-01-29T15:46:56.928Z,20.37
2019-01-29T15:49:26.405Z,19.42
2019-01-29T15:51:55.893Z,18.42
2019-01-29T15:54:25.362Z,20.17
2019-01-29T15:56:54.849Z,19.60
2019-01-29T15:59:24.329Z,19.35
2019-01-29T16:01:53.812Z,17.50
2019-01-29T16:04:23.291Z,18.30
2019-01-29T16:06:52.780Z,18.60
2019-01-29T16:09:22.263Z,19.27
2019-01-29T16:11:51.748Z,18.35
2019-01-29T16:14:21.232Z,18.50
2019-01-29T16:16:50.721Z,17.87
2019-01-29T16:19:20.197Z,18.05
2019-01-29T16:21:49.684Z,18.42
2019-01-29T16:24:19.168Z,17.60
2019-01-29T16:26:48.654Z,17.23
2019-01-29T16:29:18.136Z,17.10
2019-01-29T16:31:47.620Z,17.52
2019-01-29T16:34:17.095Z,18.05
2019-01-29T16:36:46.590Z,16.97
2019-01-29T16:39:16.060Z,16.40
2019-01-29T16:41:45.547Z,16.57
2019-01-29T16:44:15.025Z,16.67
2019-01-29T16:46:44.517Z,16.25
2019-01-29T16:49:13.994Z,17.67
2019-01-29T16:51:43.476Z,17.15
2019-01-29T16:54:12.952Z,16.30
2019-01-29T16:56:42.436Z,16.02
2019-01-29T16:59:11.916Z,15.38
2019-01-29T17:01:41.418Z,15.68
2019-01-29T17:04:11.042Z,14.55
2019-01-29T17:06:40.536Z,14.87
2019-01-29T17:09:12.141Z,14.60
2019-01-29T17:11:41.697Z,16.13
2019-01-29T17:14:11.196Z,16.32
2019-01-29T17:16:40.693Z,15.32
2019-01-29T17:19:10.190Z,15.83
2019-01-29T17:21:39.688Z,14.33
2019-01-29T17:24:09.175Z,14.23
2019-01-29T17:26:38.649Z,16.12
2019-01-29T17:29:08.227Z,14.87
2019-01-29T17:31:37.730Z,15.28
2019-01-29T17:34:07.240Z,14.80
2019-01-29T17:36:36.720Z,14.15
2019-01-29T17:39:08.278Z,14.30
2019-01-29T17:41:37.748Z,15.15
2019-01-29T17:44:07.348Z,13.80
2019-01-29T17:46:36.884Z,13.00
2019-01-29T17:49:06.458Z,12.23
2019-01-29T17:51:36.018Z,13.90
2019-01-29T17:54:05.666Z,20.70
2019-01-29T17:56:35.165Z,12.03
2019-01-29T17:59:04.791Z,11.75
2019-01-29T18:01:34.540Z,10.85
2019-01-29T18:04:04.120Z,11.50
2019-01-29T18:06:33.607Z,17.13
2019-01-29T18:09:03.883Z,35.27
2019-01-29T18:11:34.332Z,21.07
2019-01-29T18:14:04.422Z,18.60
2019-01-29T18:16:33.898Z,14.40
2019-01-29T18:19:03.393Z,12.90
2019-01-29T18:21:32.866Z,11.65
2019-01-29T18:24:02.352Z,12.70
2019-01-29T18:26:31.830Z,10.75
2019-01-29T18:29:01.318Z,12.20
2019-01-29T18:31:30.797Z,11.13
2019-01-29T18:34:00.284Z,10.60
2019-01-29T18:36:29.763Z,11.70
2019-01-29T18:38:59.245Z,14.70
2019-01-29T18:41:28.742Z,13.55
2019-01-29T18:43:58.238Z,11.30
2019-01-29T18:46:27.725Z,9.90
2019-01-29T18:48:57.215Z,10.80
2019-01-29T18:51:26.693Z,12.33
2019-01-29T18:53:56.214Z,13.20
2019-01-29T18:56:25.706Z,15.17
2019-01-29T18:58:55.220Z,16.05
2019-01-29T19:01:24.712Z,14.63
2019-01-29T19:03:54.233Z,11.63
2019-01-29T19:06:23.726Z,10.10
2019-01-29T19:08:53.980Z,8.88
2019-01-29T19:11:23.625Z,8.85
2019-01-29T19:13:53.197Z,8.65
2019-01-29T19:16:22.717Z,7.90
2019-01-29T19:18:52.208Z,9.10
2019-01-29T19:21:22.736Z,8.10
2019-01-29T19:23:52.243Z,8.63
2019-01-29T19:26:21.750Z,9.67
2019-01-29T19:28:51.235Z,9.00
2019-01-29T19:31:20.739Z,9.33
2019-01-29T19:33:50.211Z,9.67
2019-01-29T19:36:19.692Z,8.77
2019-01-29T19:38:49.257Z,8.70
2019-01-29T19:41:18.794Z,8.00
2019-01-29T19:43:48.312Z,8.30
2019-01-29T19:46:17.795Z,8.40
2019-01-29T19:48:47.316Z,7.90
2019-01-29T19:51:16.892Z,7.87
2019-01-29T19:53:46.485Z,10.20
2019-01-29T19:56:16.013Z,8.60
2019-01-29T19:58:45.587Z,8.50
2019-01-29T20:01:15.078Z,9.07
2019-01-29T20:03:44.598Z,8.70
2019-01-29T20:06:14.079Z,9.53
2019-01-29T20:08:43.611Z,8.28
2019-01-29T20:11:13.193Z,9.28
2019-01-29T20:13:42.668Z,9.77
2019-01-29T20:16:12.404Z,9.55
2019-01-29T20:18:41.833Z,9.68
2019-01-29T20:21:11.348Z,11.75
2019-01-29T20:23:41.342Z,13.40
2019-01-29T20:26:11.087Z,13.62
2019-01-29T20:28:42.595Z,15.43
2019-01-29T20:31:11.841Z,15.83
2019-01-29T20:33:41.327Z,15.80
2019-01-29T20:36:10.866Z,11.30
2019-01-29T20:38:40.371Z,9.00
2019-01-29T20:41:09.959Z,8.50
2019-01-29T20:43:39.539Z,9.80
2019-01-29T20:46:09.126Z,13.68
2019-01-29T20:48:38.601Z,13.33
2019-01-29T20:51:08.180Z,10.53
2019-01-29T20:53:37.671Z,10.07
2019-01-29T20:56:07.300Z,10.06
2019-01-29T20:58:36.894Z,10.65
2019-01-29T21:01:06.487Z,9.63
2019-01-29T21:03:36.003Z,9.80
2019-01-29T21:06:05.604Z,10.38
2019-01-29T21:08:35.082Z,10.27
2019-01-29T21:11:04.926Z,10.77
2019-01-29T21:13:34.518Z,10.68
2019-01-29T21:16:04.075Z,10.82
2019-01-29T21:18:33.577Z,10.28
2019-01-29T21:21:03.150Z,10.25
2019-01-29T21:23:32.661Z,10.50
2019-01-29T21:26:02.235Z,11.10
2019-01-29T21:28:31.729Z,10.93
2019-01-29T21:31:01.253Z,11.30
2019-01-29T21:33:30.773Z,12.90
2019-01-29T21:36:00.268Z,12.20
2019-01-29T21:38:29.795Z,12.80
2019-01-29T21:40:59.314Z,12.97
2019-01-29T21:43:28.931Z,13.83
2019-01-29T21:45:58.500Z,13.93
2019-01-29T21:48:28.033Z,14.20
2019-01-29T21:50:57.648Z,14.28
2019-01-29T21:53:27.313Z,13.40
2019-01-29T21:55:56.789Z,14.40
2019-01-29T21:58:26.380Z,14.10
2019-01-29T22:00:55.867Z,13.97
2019-01-29T22:03:25.352Z,13.43
2019-01-29T22:05:54.846Z,14.10
2019-01-29T22:08:24.337Z,13.17
2019-01-29T22:10:53.883Z,12.93
2019-01-29T22:13:23.492Z,12.33
2019-01-29T22:15:53.020Z,12.53
2019-01-29T22:18:22.533Z,12.63
2019-01-29T22:20:52.031Z,12.85
2019-01-29T22:23:21.526Z,12.37
2019-01-29T22:25:51.098Z,11.40
2019-01-29T22:28:20.597Z,12.37
2019-01-29T22:30:50.135Z,12.20
2019-01-29T22:33:20.413Z,12.95
2019-01-29T22:35:49.992Z,12.20
2019-01-29T22:38:19.853Z,11.67
2019-01-29T22:40:49.329Z,11.28
2019-01-29T22:43:18.820Z,11.50
2019-01-29T22:45:48.291Z,10.93
2019-01-29T22:48:17.780Z,11.40
2019-01-29T22:50:47.276Z,11.25
2019-01-29T22:53:16.775Z,10.80
2019-01-29T22:55:46.266Z,9.65
2019-01-29T22:58:15.767Z,9.35
2019-01-29T23:01:17.028Z,8.23
2019-01-29T23:03:49.523Z,8.18
2019-01-29T23:06:33.246Z,8.23
2019-01-29T23:09:03.266Z,7.62
2019-01-29T23:11:33.727Z,7.45
2019-01-29T23:14:03.218Z,7.30
2019-01-29T23:16:32.685Z,8.00
2019-01-29T23:19:02.171Z,7.50
2019-01-29T23:21:31.694Z,7.05
2019-01-29T23:24:01.167Z,7.00
2019-01-29T23:26:31.709Z,6.35
2019-01-29T23:29:01.182Z,6.30
2019-01-29T23:31:30.724Z,6.62
2019-01-29T23:34:00.293Z,6.75
2019-01-29T23:36:29.773Z,7.10
2019-01-29T23:38:59.249Z,7.10
2019-01-29T23:41:28.715Z,6.97
2019-01-29T23:43:58.190Z,7.50
2019-01-29T23:46:27.670Z,7.63
2019-01-29T23:48:57.167Z,7.03
2019-01-29T23:51:26.642Z,7.15
2019-01-29T23:53:56.200Z,7.08
2019-01-29T23:56:25.736Z,7.10
2019-01-29T23:58:55.215Z,7.42
